createdAt,value
2022-11-29T00:00:07.130Z,101418.84
2022-11-29T00:03:05.422Z,101420.50
2022-11-29T00:05:58.615Z,101422.92
2022-11-29T00:08:51.236Z,101423.36
2022-11-29T00:12:03.530Z,101423.40
2022-11-29T00:14:55.702Z,101419.05
2022-11-29T00:17:48.052Z,101414.30
2022-11-29T00:20:41.839Z,101410.61
2022-11-29T00:23:34.120Z,101412.55
2022-11-29T00:26:26.362Z,101418.85
2022-11-29T00:29:19.573Z,101419.41
2022-11-29T00:32:11.744Z,101425.95
2022-11-29T00:35:09.328Z,101433.96
2022-11-29T00:38:01.872Z,101439.79
2022-11-29T00:40:55.361Z,101439.16
2022-11-29T00:43:47.560Z,101440.80
2022-11-29T00:46:40.225Z,101439.76
2022-11-29T00:49:32.379Z,101444.64
2022-11-29T00:52:24.574Z,101450.86
2022-11-29T00:55:17.038Z,101457.11
2022-11-29T00:58:09.201Z,101459.59
2022-11-29T01:01:01.500Z,101461.31
2022-11-29T01:03:53.733Z,101459.91
2022-11-29T01:06:45.977Z,101463.13
2022-11-29T01:09:38.048Z,101457.19
2022-11-29T01:12:30.242Z,101450.47
2022-11-29T01:15:22.658Z,101440.63
2022-11-29T01:18:15.763Z,101428.72
2022-11-29T01:21:10.189Z,101423.47
2022-11-29T01:24:02.820Z,101422.61
2022-11-29T01:26:54.994Z,101423.00
2022-11-29T01:29:47.184Z,101423.59
2022-11-29T01:32:39.883Z,101422.98
2022-11-29T01:35:32.056Z,101424.13
2022-11-29T01:38:24.778Z,101430.86
2022-11-29T01:41:18.779Z,101437.70
2022-11-29T01:44:47.833Z,101443.84
2022-11-29T01:47:45.492Z,101447.23
2022-11-29T01:50:38.772Z,101447.29
2022-11-29T01:53:31.426Z,101446.42
2022-11-29T01:56:25.505Z,101444.30
2022-11-29T01:59:23.320Z,101446.34
2022-11-29T02:02:19.747Z,101445.26
2022-11-29T02:05:13.804Z,101442.59
2022-11-29T02:08:07.203Z,101444.70
2022-11-29T02:11:14.153Z,101445.60
2022-11-29T02:14:23.463Z,101450.39
2022-11-29T02:17:29.476Z,101452.81
2022-11-29T02:20:54.376Z,101456.64
2022-11-29T02:24:28.574Z,101460.05
2022-11-29T02:28:04.828Z,101467.91
2022-11-29T02:31:44.939Z,101479.41
2022-11-29T02:34:57.909Z,101479.17
2022-11-29T02:38:10.942Z,101480.38
2022-11-29T02:41:31.268Z,101480.05
2022-11-29T02:45:01.489Z,101476.35
2022-11-29T02:48:08.246Z,101476.95
2022-11-29T02:51:08.438Z,101483.38
2022-11-29T02:54:08.111Z,101488.73
2022-11-29T02:57:05.848Z,101489.77
2022-11-29T03:00:05.388Z,101490.43
2022-11-29T03:03:04.901Z,101488.03
2022-11-29T03:06:09.384Z,101489.51
2022-11-29T03:09:09.398Z,101496.34
2022-11-29T03:12:10.765Z,101498.90
2022-11-29T03:15:18.970Z,101500.90
2022-11-29T03:18:33.565Z,101497.67
2022-11-29T03:21:44.339Z,101498.81
2022-11-29T03:24:43.965Z,101503.52
2022-11-29T03:27:42.817Z,101507.16
2022-11-29T03:30:39.521Z,101507.02
2022-11-29T03:33:39.078Z,101513.76
2022-11-29T03:36:38.396Z,101512.38
2022-11-29T03:39:39.508Z,101517.90
2022-11-29T03:42:42.652Z,101525.00
2022-11-29T03:45:40.250Z,101522.60
2022-11-29T03:48:37.142Z,101519.03
2022-11-29T03:51:41.247Z,101511.11
2022-11-29T03:54:55.062Z,101512.02
2022-11-29T03:58:10.658Z,101508.60
2022-11-29T04:01:32.470Z,101513.86
2022-11-29T04:04:45.034Z,101517.50
2022-11-29T04:08:03.424Z,101517.60
2022-11-29T04:11:20.173Z,101516.77
2022-11-29T04:14:34.957Z,101520.02
2022-11-29T04:18:02.008Z,101529.23
2022-11-29T04:21:31.071Z,101543.08
2022-11-29T04:24:52.021Z,101553.18
2022-11-29T04:27:54.643Z,101560.21
2022-11-29T04:31:01.595Z,101566.67
2022-11-29T04:34:16.462Z,101568.70
2022-11-29T04:37:23.009Z,101570.40
2022-11-29T04:40:38.283Z,101571.67
2022-11-29T04:43:55.506Z,101572.75
2022-11-29T04:47:06.438Z,101574.02
2022-11-29T04:50:19.658Z,101575.09
2022-11-29T04:53:30.672Z,101578.30
2022-11-29T04:56:32.505Z,101581.48
2022-11-29T04:59:32.067Z,101580.02
2022-11-29T05:02:34.897Z,101582.64
2022-11-29T05:05:36.583Z,101585.70
2022-11-29T05:08:42.799Z,101578.42
2022-11-29T05:11:49.153Z,101573.84
2022-11-29T05:14:52.563Z,101575.73
2022-11-29T05:17:56.648Z,101569.98
2022-11-29T05:20:54.992Z,101571.30
2022-11-29T05:23:57.942Z,101573.25
2022-11-29T05:26:57.349Z,101580.17
2022-11-29T05:29:56.657Z,101591.36
2022-11-29T05:32:59.466Z,101596.14
2022-11-29T05:36:08.341Z,101601.65
2022-11-29T05:39:17.764Z,101611.45
2022-11-29T05:42:37.800Z,101620.50
2022-11-29T05:45:34.601Z,101618.27
2022-11-29T05:48:31.323Z,101622.33
2022-11-29T05:51:35.230Z,101632.48
2022-11-29T05:54:32.242Z,101637.44
2022-11-29T05:57:32.851Z,101629.14
2022-11-29T06:00:26.082Z,101627.53
2022-11-29T06:03:27.029Z,101630.48
2022-11-29T06:06:27.094Z,101621.27
2022-11-29T06:09:25.270Z,101619.65
2022-11-29T06:12:21.539Z,101615.55
2022-11-29T06:15:43.218Z,101617.97
2022-11-29T06:21:51.088Z,101631.46
2022-11-29T06:24:56.686Z,101640.69
2022-11-29T06:28:11.013Z,101645.35
2022-11-29T06:31:13.606Z,101652.30
2022-11-29T06:34:13.502Z,101654.61
2022-11-29T06:37:15.428Z,101655.34
2022-11-29T06:40:13.232Z,101659.77
2022-11-29T06:43:06.126Z,101667.02
2022-11-29T06:46:02.289Z,101665.98
2022-11-29T06:49:02.303Z,101664.11
2022-11-29T06:51:59.705Z,101663.20
2022-11-29T06:55:04.495Z,101659.92
2022-11-29T06:58:07.939Z,101652.86
2022-11-29T07:01:08.290Z,101650.73
2022-11-29T07:04:17.089Z,101655.52
2022-11-29T07:07:14.885Z,101669.51
2022-11-29T07:10:15.165Z,101675.98
2022-11-29T07:13:08.252Z,101677.64
2022-11-29T07:16:07.669Z,101675.42
2022-11-29T07:19:10.684Z,101677.84
2022-11-29T07:22:15.184Z,101684.52
2022-11-29T07:25:19.306Z,101686.48
2022-11-29T07:28:23.853Z,101690.13
2022-11-29T07:31:26.881Z,101686.55
2022-11-29T07:34:27.811Z,101677.39
2022-11-29T07:37:27.302Z,101669.65
2022-11-29T07:40:25.440Z,101676.13
2022-11-29T07:43:31.454Z,101680.27
2022-11-29T07:46:24.078Z,101678.99
2022-11-29T07:49:16.187Z,101680.52
2022-11-29T07:52:08.448Z,101682.02
2022-11-29T07:55:00.839Z,101693.00
2022-11-29T07:57:54.341Z,101696.50
2022-11-29T08:00:47.016Z,101696.13
2022-11-29T08:03:39.402Z,101696.69
2022-11-29T08:06:31.851Z,101700.94
2022-11-29T08:09:24.040Z,101709.08
2022-11-29T08:12:16.384Z,101711.58
2022-11-29T08:15:11.257Z,101716.48
2022-11-29T08:18:04.654Z,101715.60
2022-11-29T08:20:56.662Z,101715.23
2022-11-29T08:23:52.520Z,101714.27
2022-11-29T08:26:44.747Z,101717.20
2022-11-29T08:29:36.949Z,101716.30
2022-11-29T08:32:31.455Z,101714.79
2022-11-29T08:35:25.329Z,101716.70
2022-11-29T08:38:18.186Z,101712.75
2022-11-29T08:41:15.336Z,101704.89
2022-11-29T08:44:09.411Z,101698.53
2022-11-29T08:47:19.593Z,101696.80
2022-11-29T08:50:16.283Z,101692.01
2022-11-29T08:53:26.301Z,101688.99
2022-11-29T08:57:10.057Z,101695.17
2022-11-29T08:59:33.486Z,101708.36
2022-11-29T09:02:25.897Z,101722.98
2022-11-29T09:05:18.350Z,101725.11
2022-11-29T09:08:10.635Z,101730.55
2022-11-29T09:11:08.291Z,101730.84
2022-11-29T09:14:02.830Z,101723.15
2022-11-29T09:16:55.156Z,101720.31
2022-11-29T09:19:55.117Z,101724.16
2022-11-29T09:22:47.407Z,101723.98
2022-11-29T09:25:39.827Z,101733.77
2022-11-29T09:28:33.513Z,101735.81
2022-11-29T09:31:27.472Z,101742.44
2022-11-29T09:34:19.909Z,101746.73
2022-11-29T09:37:15.180Z,101743.96
2022-11-29T09:40:09.323Z,101743.62
2022-11-29T09:43:08.046Z,101738.80
2022-11-29T09:46:09.398Z,101728.80
2022-11-29T09:49:25.978Z,101720.70
2022-11-29T09:52:29.111Z,101720.42
2022-11-29T09:55:40.265Z,101725.91
2022-11-29T09:58:40.661Z,101733.05
2022-11-29T10:01:36.892Z,101735.85
2022-11-29T10:04:32.283Z,101734.17
2022-11-29T10:07:29.634Z,101736.32
2022-11-29T10:10:27.143Z,101741.25
2022-11-29T10:13:25.228Z,101740.30
2022-11-29T10:16:22.564Z,101732.11
2022-11-29T10:19:22.300Z,101733.73
2022-11-29T10:22:22.055Z,101738.35
2022-11-29T10:25:24.482Z,101734.16
2022-11-29T10:28:20.600Z,101731.30
2022-11-29T10:31:21.973Z,101734.27
2022-11-29T10:34:18.136Z,101737.63
2022-11-29T10:37:15.508Z,101742.23
2022-11-29T10:40:15.556Z,101741.36
2022-11-29T10:43:09.106Z,101732.98
2022-11-29T10:46:02.717Z,101728.16
2022-11-29T10:48:56.126Z,101724.63
2022-11-29T10:51:48.865Z,101727.70
2022-11-29T10:54:44.127Z,101730.17
2022-11-29T10:57:36.325Z,101729.21
2022-11-29T11:00:30.265Z,101728.56
2022-11-29T11:03:29.440Z,101728.81
2022-11-29T11:06:23.128Z,101725.60
2022-11-29T11:09:23.791Z,101716.52
2022-11-29T11:12:23.547Z,101717.48
2022-11-29T11:15:30.379Z,101718.26
2022-11-29T11:18:26.763Z,101710.61
2022-11-29T11:21:20.642Z,101699.95
2022-11-29T11:24:25.382Z,101685.32
2022-11-29T11:27:31.996Z,101676.15
2022-11-29T11:30:27.648Z,101671.20
2022-11-29T11:33:23.807Z,101673.90
2022-11-29T11:36:23.415Z,101667.72
2022-11-29T11:39:22.070Z,101674.28
2022-11-29T11:42:35.436Z,101675.82
2022-11-29T11:45:33.717Z,101672.64
2022-11-29T11:48:25.892Z,101670.81
2022-11-29T11:51:27.254Z,101673.02
2022-11-29T11:54:19.689Z,101665.52
2022-11-29T11:57:22.136Z,101650.42
2022-11-29T12:04:03.911Z,101636.36
2022-11-29T12:07:01.002Z,101628.67
2022-11-29T12:09:57.545Z,101625.14
2022-11-29T12:12:53.631Z,101627.39
2022-11-29T12:15:50.140Z,101622.44
2022-11-29T12:18:49.350Z,101618.05
2022-11-29T12:21:54.328Z,101616.31
2022-11-29T12:24:54.514Z,101625.42
2022-11-29T12:27:47.123Z,101628.60
2022-11-29T12:30:43.791Z,101624.23
2022-11-29T12:33:47.171Z,101625.02
2022-11-29T12:36:45.574Z,101630.72
2022-11-29T12:39:57.174Z,101631.64
2022-11-29T12:42:58.701Z,101628.98
2022-11-29T12:46:01.527Z,101627.11
2022-11-29T12:49:01.382Z,101626.64
2022-11-29T12:52:01.667Z,101626.23
2022-11-29T12:55:05.037Z,101621.69
2022-11-29T12:58:08.263Z,101623.61
2022-11-29T13:01:12.281Z,101630.45
2022-11-29T13:04:15.480Z,101629.48
2022-11-29T13:07:17.138Z,101622.58
2022-11-29T13:10:30.361Z,101627.99
2022-11-29T13:13:33.519Z,101627.75
2022-11-29T13:16:40.361Z,101628.89
2022-11-29T13:19:40.472Z,101621.92
2022-11-29T13:22:40.642Z,101614.60
2022-11-29T13:25:38.292Z,101612.40
2022-11-29T13:28:33.732Z,101614.08
2022-11-29T13:31:29.504Z,101611.77
2022-11-29T13:34:31.857Z,101602.61
2022-11-29T13:37:31.635Z,101602.04
2022-11-29T13:40:33.685Z,101598.45
2022-11-29T13:43:35.027Z,101598.27
2022-11-29T13:46:34.825Z,101601.98
2022-11-29T13:49:54.765Z,101599.54
2022-11-29T13:52:48.750Z,101600.92
2022-11-29T13:55:48.317Z,101594.58
2022-11-29T13:58:42.136Z,101588.59
2022-11-29T14:01:46.631Z,101579.51
2022-11-29T14:04:45.969Z,101578.42
2022-11-29T14:07:58.438Z,101581.90
2022-11-29T14:10:52.896Z,101588.03
2022-11-29T14:13:52.938Z,101589.41
2022-11-29T14:16:48.869Z,101591.02
2022-11-29T14:19:41.121Z,101592.90
2022-11-29T14:22:33.219Z,101594.54
2022-11-29T14:28:44.336Z,101592.61
2022-11-29T14:31:57.725Z,101586.91
2022-11-29T14:34:55.837Z,101583.73
2022-11-29T14:37:57.528Z,101588.90
2022-11-29T14:40:58.611Z,101590.77
2022-11-29T14:43:51.172Z,101593.00
2022-11-29T14:46:43.774Z,101591.32
2022-11-29T14:49:44.533Z,101588.98
2022-11-29T14:52:41.691Z,101591.14
2022-11-29T14:55:36.957Z,101586.14
2022-11-29T14:58:28.923Z,101589.02
2022-11-29T15:01:22.198Z,101592.86
2022-11-29T15:04:15.687Z,101596.43
2022-11-29T15:07:14.877Z,101592.04
2022-11-29T15:10:15.322Z,101592.29
2022-11-29T15:13:11.018Z,101588.27
2022-11-29T15:16:23.689Z,101590.17
2022-11-29T15:19:45.153Z,101593.27
2022-11-29T15:22:47.753Z,101596.85
2022-11-29T15:25:49.783Z,101598.16
2022-11-29T15:28:42.163Z,101600.34
2022-11-29T15:31:34.943Z,101600.34
2022-11-29T15:34:33.614Z,101602.24
2022-11-29T15:37:40.225Z,101604.98
2022-11-29T15:40:35.750Z,101604.41
2022-11-29T15:43:31.640Z,101598.88
2022-11-29T15:46:28.717Z,101603.35
2022-11-29T15:49:26.643Z,101607.70
2022-11-29T15:52:25.567Z,101609.61
2022-11-29T15:55:18.077Z,101613.66
2022-11-29T15:58:15.217Z,101615.40
2022-11-29T16:01:08.450Z,101613.25
2022-11-29T16:04:01.857Z,101612.83
2022-11-29T16:06:54.502Z,101613.38
2022-11-29T16:09:49.998Z,101609.51
2022-11-29T16:12:54.422Z,101610.90
2022-11-29T16:15:46.858Z,101614.81
2022-11-29T16:18:41.168Z,101614.89
2022-11-29T16:21:34.234Z,101614.79
2022-11-29T16:24:27.699Z,101609.04
2022-11-29T16:27:22.801Z,101615.26
2022-11-29T16:30:24.369Z,101618.14
2022-11-29T16:33:23.414Z,101618.43
2022-11-29T16:36:18.937Z,101619.62
2022-11-29T16:39:23.301Z,101627.05
2022-11-29T16:42:24.964Z,101627.99
2022-11-29T16:45:39.313Z,101626.65
2022-11-29T16:48:38.775Z,101627.48
2022-11-29T16:51:39.964Z,101627.19
2022-11-29T16:54:34.490Z,101626.00
2022-11-29T16:57:26.819Z,101630.33
2022-11-29T17:00:34.059Z,101633.21
2022-11-29T17:03:26.239Z,101634.64
2022-11-29T17:06:21.297Z,101637.67
2022-11-29T17:09:22.616Z,101635.45
2022-11-29T17:12:15.966Z,101638.39
2022-11-29T17:15:10.238Z,101636.77
2022-11-29T17:18:02.730Z,101638.11
2022-11-29T17:20:57.800Z,101643.52
2022-11-29T17:23:50.794Z,101642.25
2022-11-29T17:26:43.988Z,101640.61
2022-11-29T17:29:36.681Z,101637.41
2022-11-29T17:32:29.015Z,101639.80
2022-11-29T17:35:21.514Z,101644.67
2022-11-29T17:38:14.114Z,101647.63
2022-11-29T17:41:12.088Z,101640.48
2022-11-29T17:44:04.422Z,101639.33
2022-11-29T17:46:56.883Z,101640.53
2022-11-29T17:49:49.279Z,101642.57
2022-11-29T17:52:42.304Z,101645.85
2022-11-29T17:55:34.614Z,101647.90
2022-11-29T17:58:26.928Z,101646.52
2022-11-29T18:01:21.718Z,101643.95
2022-11-29T18:04:13.582Z,101641.52
2022-11-29T18:07:05.859Z,101646.92
2022-11-29T18:09:58.341Z,101644.79
2022-11-29T18:12:50.964Z,101642.95
2022-11-29T18:15:45.531Z,101643.16
2022-11-29T18:18:38.722Z,101642.01
2022-11-29T18:21:33.691Z,101640.36
2022-11-29T18:24:25.754Z,101642.71
2022-11-29T18:27:18.172Z,101643.17
2022-11-29T18:30:12.689Z,101642.95
2022-11-29T18:33:05.174Z,101643.79
2022-11-29T18:36:03.166Z,101649.19
2022-11-29T18:38:59.997Z,101645.15
2022-11-29T18:41:55.383Z,101643.59
2022-11-29T18:44:48.125Z,101643.73
2022-11-29T18:47:40.737Z,101641.75
2022-11-29T18:50:33.400Z,101644.77
2022-11-29T18:53:26.064Z,101648.15
2022-11-29T18:56:22.362Z,101650.44
2022-11-29T18:59:17.500Z,101649.94
2022-11-29T19:02:10.482Z,101650.01
2022-11-29T19:05:02.857Z,101650.27
2022-11-29T19:07:55.253Z,101647.73
2022-11-29T19:10:47.902Z,101650.45
2022-11-29T19:13:40.717Z,101652.80
2022-11-29T19:16:34.581Z,101648.30
2022-11-29T19:19:27.199Z,101645.35
2022-11-29T19:22:19.516Z,101640.60
2022-11-29T19:25:12.461Z,101637.07
2022-11-29T19:28:09.090Z,101635.86
2022-11-29T19:31:06.136Z,101634.78
2022-11-29T19:33:59.462Z,101639.00
2022-11-29T19:36:51.830Z,101639.83
2022-11-29T19:39:44.542Z,101643.00
2022-11-29T19:42:37.578Z,101645.04
2022-11-29T19:45:32.257Z,101646.64
2022-11-29T19:48:24.356Z,101641.52
2022-11-29T19:51:18.027Z,101638.16
2022-11-29T19:54:12.172Z,101637.71
2022-11-29T19:57:04.155Z,101634.30
2022-11-29T19:59:56.377Z,101637.64
2022-11-29T20:02:48.774Z,101632.80
2022-11-29T20:05:41.080Z,101632.30
2022-11-29T20:08:33.478Z,101634.63
2022-11-29T20:11:27.374Z,101640.37
2022-11-29T20:14:19.715Z,101637.09
2022-11-29T20:17:11.893Z,101633.13
2022-11-29T20:20:03.960Z,101631.00
2022-11-29T20:22:56.559Z,101633.26
2022-11-29T20:25:53.600Z,101630.36
2022-11-29T20:28:46.508Z,101628.41
2022-11-29T20:31:44.369Z,101629.08
2022-11-29T20:34:41.254Z,101629.55
2022-11-29T20:37:50.110Z,101636.02
2022-11-29T20:40:52.948Z,101638.69
2022-11-29T20:43:49.270Z,101640.98
2022-11-29T20:46:41.994Z,101642.79
2022-11-29T20:49:35.025Z,101642.85
2022-11-29T20:52:39.888Z,101638.14
2022-11-29T20:55:32.300Z,101641.35
2022-11-29T20:58:26.656Z,101644.73
2022-11-29T21:01:18.872Z,101640.55
2022-11-29T21:04:11.386Z,101640.02
2022-11-29T21:07:03.579Z,101638.46
2022-11-29T21:10:00.906Z,101638.32
2022-11-29T21:12:54.640Z,101643.80
2022-11-29T21:15:48.236Z,101644.73
2022-11-29T21:18:41.489Z,101646.71
2022-11-29T21:21:42.698Z,101645.66
2022-11-29T21:24:48.339Z,101643.77
2022-11-29T21:27:41.861Z,101637.05
2022-11-29T21:30:34.719Z,101636.10
2022-11-29T21:33:27.846Z,101637.02
2022-11-29T21:36:20.101Z,101635.27
2022-11-29T21:39:16.342Z,101634.44
2022-11-29T21:42:08.916Z,101636.24
2022-11-29T21:45:01.050Z,101633.80
2022-11-29T21:47:53.382Z,101633.61
2022-11-29T21:50:50.541Z,101635.73
2022-11-29T21:53:43.169Z,101640.32
2022-11-29T21:56:35.495Z,101635.37
2022-11-29T21:59:28.238Z,101636.98
2022-11-29T22:02:20.529Z,101636.11
2022-11-29T22:05:12.820Z,101642.77
2022-11-29T22:08:05.506Z,101646.52
2022-11-29T22:11:05.793Z,101640.73
2022-11-29T22:14:18.219Z,101642.94
2022-11-29T22:17:10.545Z,101645.90
2022-11-29T22:20:02.643Z,101641.66
2022-11-29T22:22:58.713Z,101638.69
2022-11-29T22:25:51.167Z,101639.61
2022-11-29T22:28:43.689Z,101647.23
2022-11-29T22:31:36.863Z,101648.23
2022-11-29T22:34:29.579Z,101651.36
2022-11-29T22:37:21.945Z,101645.19
2022-11-29T22:40:15.575Z,101648.39
2022-11-29T22:43:07.949Z,101645.15
2022-11-29T22:46:06.478Z,101643.19
2022-11-29T22:49:00.707Z,101641.20
2022-11-29T22:51:52.641Z,101647.16
2022-11-29T22:54:45.314Z,101642.84
2022-11-29T22:57:37.744Z,101641.83
2022-11-29T23:00:30.237Z,101640.58
2022-11-29T23:03:22.584Z,101639.23
2022-11-29T23:06:20.284Z,101636.64
2022-11-29T23:09:16.302Z,101628.98
2022-11-29T23:12:09.527Z,101629.11
2022-11-29T23:15:02.958Z,101629.98
2022-11-29T23:17:55.168Z,101625.10
2022-11-29T23:20:47.737Z,101621.95
2022-11-29T23:23:40.359Z,101621.08
2022-11-29T23:26:41.909Z,101619.23
2022-11-29T23:29:33.920Z,101617.54
2022-11-29T23:32:26.209Z,101619.25
2022-11-29T23:35:18.799Z,101620.39
2022-11-29T23:38:11.033Z,101612.35
2022-11-29T23:41:03.481Z,101616.34
2022-11-29T23:43:55.663Z,101617.80
2022-11-29T23:46:47.863Z,101616.24
2022-11-29T23:49:40.159Z,101616.84
2022-11-29T23:52:32.311Z,101620.17
2022-11-29T23:55:25.116Z,101621.53
2022-11-29T23:58:17.293Z,101626.31
